TimeEST,TemperatureF,Dew PointF,Humidity,Sea Level PressureIn,VisibilityMPH,Wind Direction,Wind SpeedMPH,Gust SpeedMPH,PrecipitationIn,Events,Conditions,WindDirDegrees,DateUTC
12:15 AM,30.2,30.2,100,30.15,10.0,Calm,Calm,-,N/A,,Clear,0,2013-01-20 05:15:00
12:35 AM,30.2,30.2,100,30.14,10.0,Calm,Calm,-,N/A,,Clear,0,2013-01-20 05:35:00
1:15 AM,32.0,30.2,93,30.12,10.0,Calm,Calm,-,N/A,,Clear,0,2013-01-20 06:15:00
1:35 AM,30.2,30.2,100,30.12,10.0,Calm,Calm,-,N/A,,Clear,0,2013-01-20 06:35:00
1:55 AM,32.0,30.2,93,30.11,10.0,Calm,Calm,-,N/A,,Clear,0,2013-01-20 06:55:00
2:15 AM,32.0,30.2,93,30.10,10.0,Calm,Calm,-,N/A,,Clear,0,2013-01-20 07:15:00
2:35 AM,32.0,30.2,93,30.10,10.0,Calm,Calm,-,N/A,,Clear,0,2013-01-20 07:35:00
2:55 AM,35.6,32.0,87,30.10,10.0,SSE,3.5,-,N/A,,Clear,160,2013-01-20 07:55:00
3:15 AM,37.4,32.0,81,30.08,10.0,South,3.5,-,N/A,,Clear,170,2013-01-20 08:15:00
3:35 AM,39.2,32.0,75,30.08,10.0,South,4.6,-,N/A,,Clear,180,2013-01-20 08:35:00
3:55 AM,41.0,32.0,70,30.07,10.0,South,4.6,-,N/A,,Clear,180,2013-01-20 08:55:00
4:15 AM,37.4,32.0,81,30.07,10.0,SE,4.6,-,N/A,,Clear,140,2013-01-20 09:15:00
4:35 AM,37.4,32.0,81,30.06,10.0,SE,3.5,-,N/A,,Clear,140,2013-01-20 09:35:00
4:55 AM,37.4,32.0,81,30.06,10.0,SSE,3.5,-,N/A,,Clear,160,2013-01-20 09:55:00
5:15 AM,37.4,32.0,81,30.05,10.0,SSE,3.5,-,N/A,,Clear,160,2013-01-20 10:15:00
5:35 AM,37.4,32.0,81,30.05,10.0,Calm,Calm,-,N/A,,Clear,0,2013-01-20 10:35:00
5:55 AM,35.6,32.0,87,30.05,10.0,South,3.5,-,N/A,,Clear,170,2013-01-20 10:55:00
6:15 AM,35.6,32.0,87,30.05,10.0,South,3.5,-,N/A,,Clear,170,2013-01-20 11:15:00
6:35 AM,35.6,32.0,87,30.05,10.0,Calm,Calm,-,N/A,,Clear,0,2013-01-20 11:35:00
7:15 AM,35.6,32.0,87,30.04,10.0,South,3.5,-,N/A,,Clear,190,2013-01-20 12:15:00
7:35 AM,35.6,32.0,87,30.04,10.0,South,3.5,-,N/A,,Clear,190,2013-01-20 12:35:00
7:55 AM,37.4,32.0,81,30.05,10.0,Calm,Calm,-,N/A,,Clear,0,2013-01-20 12:55:00
8:15 AM,39.2,32.0,75,30.05,10.0,South,3.5,-,N/A,,Clear,180,2013-01-20 13:15:00
8:35 AM,41.0,32.0,70,30.05,10.0,South,6.9,-,N/A,,Clear,190,2013-01-20 13:35:00
8:55 AM,42.8,32.0,66,30.05,10.0,SSW,5.8,-,N/A,,Clear,200,2013-01-20 13:55:00
9:15 AM,44.6,32.0,61,30.06,10.0,SSW,9.2,-,N/A,,Clear,200,2013-01-20 14:15:00
9:35 AM,46.4,32.0,57,30.06,10.0,SSW,10.4,-,N/A,,Clear,210,2013-01-20 14:35:00
9:55 AM,48.2,32.0,54,30.07,10.0,SSW,9.2,-,N/A,,Clear,210,2013-01-20 14:55:00
10:15 AM,50.0,32.0,50,30.06,10.0,SW,12.7,17.3,N/A,,Clear,220,2013-01-20 15:15:00
10:35 AM,51.8,32.0,47,30.05,10.0,SSW,11.5,16.1,N/A,,Clear,210,2013-01-20 15:35:00
10:55 AM,51.8,32.0,47,30.04,10.0,SSW,10.4,18.4,N/A,,Clear,210,2013-01-20 15:55:00
11:15 AM,53.6,33.8,47,30.04,10.0,SSW,11.5,17.3,N/A,,Clear,210,2013-01-20 16:15:00
11:35 AM,55.4,33.8,44,30.02,10.0,SW,10.4,-,N/A,,Clear,220,2013-01-20 16:35:00
11:55 AM,55.4,33.8,44,30.01,10.0,WSW,12.7,18.4,N/A,,Clear,240,2013-01-20 16:55:00
12:15 PM,55.4,32.0,41,30.00,10.0,SW,12.7,18.4,N/A,,Clear,230,2013-01-20 17:15:00
12:35 PM,57.2,32.0,38,29.99,10.0,SW,12.7,19.6,N/A,,Clear,220,2013-01-20 17:35:00
12:55 PM,57.2,32.0,38,29.99,10.0,WSW,11.5,20.7,N/A,,Clear,240,2013-01-20 17:55:00
1:15 PM,59.0,32.0,36,29.98,10.0,SSW,15.0,20.7,N/A,,Clear,210,2013-01-20 18:15:00
1:35 PM,59.0,32.0,36,29.97,10.0,SW,15.0,18.4,N/A,,Clear,230,2013-01-20 18:35:00
1:55 PM,59.0,32.0,36,29.97,10.0,SW,12.7,20.7,N/A,,Clear,230,2013-01-20 18:55:00
2:15 PM,59.0,32.0,36,29.97,10.0,SW,12.7,21.9,N/A,,Clear,220,2013-01-20 19:15:00
2:35 PM,59.0,32.0,36,29.96,10.0,SW,13.8,20.7,N/A,,Clear,220,2013-01-20 19:35:00
2:55 PM,59.0,32.0,36,29.97,10.0,SW,12.7,23.0,N/A,,Clear,230,2013-01-20 19:55:00
3:15 PM,59.0,32.0,36,29.97,10.0,SW,12.7,19.6,N/A,,Clear,230,2013-01-20 20:15:00
4:15 PM,57.2,32.0,38,29.97,10.0,SW,15.0,23.0,N/A,,Clear,220,2013-01-20 21:15:00
4:35 PM,57.2,32.0,38,29.98,10.0,SW,9.2,-,N/A,,Clear,220,2013-01-20 21:35:00
4:55 PM,55.4,32.0,41,29.98,10.0,SSW,8.1,-,N/A,,Clear,210,2013-01-20 21:55:00
5:15 PM,53.6,32.0,44,29.99,10.0,SW,5.8,-,N/A,,Clear,220,2013-01-20 22:15:00
5:35 PM,53.6,32.0,44,29.99,10.0,SW,4.6,-,N/A,,Clear,220,2013-01-20 22:35:00
5:55 PM,51.8,32.0,47,30.00,10.0,SW,3.5,-,N/A,,Clear,220,2013-01-20 22:55:00
6:15 PM,51.8,33.8,50,30.02,10.0,WSW,3.5,-,N/A,,Clear,250,2013-01-20 23:15:00
6:35 PM,46.4,33.8,62,30.03,10.0,Calm,Calm,-,N/A,,Clear,0,2013-01-20 23:35:00
6:55 PM,50.0,32.0,50,30.04,10.0,West,3.5,-,N/A,,Clear,260,2013-01-20 23:55:00
7:15 PM,50.0,32.0,50,30.05,10.0,Calm,Calm,-,N/A,,Clear,0,2013-01-21 00:15:00
7:55 PM,48.2,32.0,54,30.06,10.0,West,4.6,-,N/A,,Clear,270,2013-01-21 00:55:00
8:15 PM,46.4,30.2,53,30.07,10.0,West,4.6,-,N/A,,Clear,260,2013-01-21 01:15:00
8:35 PM,48.2,30.2,50,30.07,10.0,WSW,3.5,-,N/A,,Clear,250,2013-01-21 01:35:00
8:55 PM,46.4,30.2,53,30.07,10.0,WSW,3.5,-,N/A,,Clear,240,2013-01-21 01:55:00
9:15 PM,44.6,30.2,57,30.07,10.0,West,3.5,-,N/A,,Clear,260,2013-01-21 02:15:00
9:35 PM,46.4,30.2,53,30.07,10.0,West,3.5,-,N/A,,Clear,260,2013-01-21 02:35:00
9:55 PM,44.6,30.2,57,30.08,10.0,West,3.5,-,N/A,,Clear,260,2013-01-21 02:55:00
10:15 PM,39.2,32.0,75,30.08,10.0,Calm,Calm,-,N/A,,Clear,0,2013-01-21 03:15:00
10:35 PM,37.4,30.2,75,30.08,10.0,Calm,Calm,-,N/A,,Clear,0,2013-01-21 03:35:00
10:55 PM,33.8,30.2,87,30.09,10.0,Calm,Calm,-,N/A,,Clear,0,2013-01-21 03:55:00
11:15 PM,41.0,30.2,65,30.09,10.0,West,3.5,-,N/A,,Clear,270,2013-01-21 04:15:00
11:35 PM,37.4,30.2,75,30.08,10.0,Calm,Calm,-,N/A,,Clear,0,2013-01-21 04:35:00
11:55 PM,35.6,30.2,81,30.08,10.0,Calm,Calm,-,N/A,,Clear,0,2013-01-21 04:55:00